sensor_id;sensor_type;location;lat;lon;timestamp;temperature;humidity
12726;DHT22;6427;49.754;6.106;2023-02-08T00:00:37;-1.20;99.90
12726;DHT22;6427;49.754;6.106;2023-02-08T00:03:04;-1.20;99.90
12726;DHT22;6427;49.754;6.106;2023-02-08T00:05:31;-1.20;99.90
12726;DHT22;6427;49.754;6.106;2023-02-08T00:07:59;-1.20;99.90
12726;DHT22;6427;49.754;6.106;2023-02-08T00:10:26;-1.20;99.90
12726;DHT22;6427;49.754;6.106;2023-02-08T00:12:54;-1.30;99.90
12726;DHT22;6427;49.754;6.106;2023-02-08T00:15:22;-1.30;99.90
12726;DHT22;6427;49.754;6.106;2023-02-08T00:17:49;-1.30;99.90
12726;DHT22;6427;49.754;6.106;2023-02-08T00:20:17;-1.30;99.90
12726;DHT22;6427;49.754;6.106;2023-02-08T00:22:44;-1.40;99.90
12726;DHT22;6427;49.754;6.106;2023-02-08T00:25:12;-1.40;99.90
12726;DHT22;6427;49.754;6.106;2023-02-08T00:27:39;-1.40;99.90
12726;DHT22;6427;49.754;6.106;2023-02-08T00:30:07;-1.40;99.90
12726;DHT22;6427;49.754;6.106;2023-02-08T00:32:35;-1.40;99.90
12726;DHT22;6427;49.754;6.106;2023-02-08T00:35:03;-1.50;99.90
12726;DHT22;6427;49.754;6.106;2023-02-08T00:37:31;-1.50;99.90
12726;DHT22;6427;49.754;6.106;2023-02-08T00:39:58;-1.50;99.90
12726;DHT22;6427;49.754;6.106;2023-02-08T00:42:26;-1.50;99.90
12726;DHT22;6427;49.754;6.106;2023-02-08T00:44:53;-1.50;99.90
12726;DHT22;6427;49.754;6.106;2023-02-08T00:47:21;-1.50;99.90
12726;DHT22;6427;49.754;6.106;2023-02-08T00:49:48;-1.50;99.90
12726;DHT22;6427;49.754;6.106;2023-02-08T00:52:17;-1.50;99.90
12726;DHT22;6427;49.754;6.106;2023-02-08T00:54:44;-1.50;99.90
12726;DHT22;6427;49.754;6.106;2023-02-08T00:57:12;-1.60;99.90
12726;DHT22;6427;49.754;6.106;2023-02-08T00:59:39;-1.60;99.90
12726;DHT22;6427;49.754;6.106;2023-02-08T01:02:07;-1.60;99.90
12726;DHT22;6427;49.754;6.106;2023-02-08T01:04:35;-1.60;99.90
12726;DHT22;6427;49.754;6.106;2023-02-08T01:07:03;-1.70;99.90
12726;DHT22;6427;49.754;6.106;2023-02-08T01:09:30;-1.70;99.90
12726;DHT22;6427;49.754;6.106;2023-02-08T01:11:58;-1.70;99.90
12726;DHT22;6427;49.754;6.106;2023-02-08T01:14:27;-1.50;99.90
12726;DHT22;6427;49.754;6.106;2023-02-08T01:16:54;-1.50;99.90
12726;DHT22;6427;49.754;6.106;2023-02-08T01:19:22;-1.50;99.90
12726;DHT22;6427;49.754;6.106;2023-02-08T01:21:49;-1.60;99.90
12726;DHT22;6427;49.754;6.106;2023-02-08T01:24:17;-1.60;99.90
12726;DHT22;6427;49.754;6.106;2023-02-08T01:26:44;-1.40;99.90
12726;DHT22;6427;49.754;6.106;2023-02-08T01:29:12;-1.40;99.90
12726;DHT22;6427;49.754;6.106;2023-02-08T01:31:40;-1.20;99.90
12726;DHT22;6427;49.754;6.106;2023-02-08T01:34:08;-1.30;99.90
12726;DHT22;6427;49.754;6.106;2023-02-08T01:36:35;-1.30;99.90
12726;DHT22;6427;49.754;6.106;2023-02-08T01:39:04;-1.40;99.90
12726;DHT22;6427;49.754;6.106;2023-02-08T01:41:32;-1.50;99.90
12726;DHT22;6427;49.754;6.106;2023-02-08T01:44:02;-1.60;99.90
12726;DHT22;6427;49.754;6.106;2023-02-08T01:46:28;-1.60;99.90
12726;DHT22;6427;49.754;6.106;2023-02-08T01:48:57;-1.70;99.90
12726;DHT22;6427;49.754;6.106;2023-02-08T01:51:24;-1.70;99.90
12726;DHT22;6427;49.754;6.106;2023-02-08T01:53:52;-1.70;99.90
12726;DHT22;6427;49.754;6.106;2023-02-08T01:56:20;-1.80;99.90
12726;DHT22;6427;49.754;6.106;2023-02-08T01:58:48;-1.80;99.90
12726;DHT22;6427;49.754;6.106;2023-02-08T02:01:14;-1.80;99.90
12726;DHT22;6427;49.754;6.106;2023-02-08T02:03:42;-1.80;99.90
12726;DHT22;6427;49.754;6.106;2023-02-08T02:06:15;-1.50;99.90
12726;DHT22;6427;49.754;6.106;2023-02-08T02:08:41;-1.20;99.90
12726;DHT22;6427;49.754;6.106;2023-02-08T02:11:08;-1.20;99.90
12726;DHT22;6427;49.754;6.106;2023-02-08T02:13:35;-1.00;99.90
12726;DHT22;6427;49.754;6.106;2023-02-08T02:16:04;-1.20;99.90
12726;DHT22;6427;49.754;6.106;2023-02-08T02:18:31;-1.20;99.90
12726;DHT22;6427;49.754;6.106;2023-02-08T02:34:44;-1.80;99.90
12726;DHT22;6427;49.754;6.106;2023-02-08T02:40:18;-2.00;99.90
12726;DHT22;6427;49.754;6.106;2023-02-08T02:48:01;-2.20;99.90
12726;DHT22;6427;49.754;6.106;2023-02-08T02:53:25;-2.20;99.90
12726;DHT22;6427;49.754;6.106;2023-02-08T02:56:01;-2.20;99.90
12726;DHT22;6427;49.754;6.106;2023-02-08T02:58:24;-2.00;99.90
12726;DHT22;6427;49.754;6.106;2023-02-08T03:00:55;-2.00;99.90
12726;DHT22;6427;49.754;6.106;2023-02-08T03:03:23;-2.00;99.90
12726;DHT22;6427;49.754;6.106;2023-02-08T03:05:50;-2.00;99.90
12726;DHT22;6427;49.754;6.106;2023-02-08T03:11:03;-2.10;99.90
12726;DHT22;6427;49.754;6.106;2023-02-08T03:13:52;-2.20;99.90
12726;DHT22;6427;49.754;6.106;2023-02-08T03:16:18;-2.20;99.90
12726;DHT22;6427;49.754;6.106;2023-02-08T03:21:56;-2.30;99.90
12726;DHT22;6427;49.754;6.106;2023-02-08T03:24:36;-2.30;99.90
12726;DHT22;6427;49.754;6.106;2023-02-08T03:27:05;-2.40;99.90
12726;DHT22;6427;49.754;6.106;2023-02-08T03:29:39;-2.10;99.90
12726;DHT22;6427;49.754;6.106;2023-02-08T03:32:16;-2.10;99.90
12726;DHT22;6427;49.754;6.106;2023-02-08T03:34:54;-2.10;99.90
12726;DHT22;6427;49.754;6.106;2023-02-08T03:37:21;-2.20;99.90
12726;DHT22;6427;49.754;6.106;2023-02-08T03:39:48;-2.30;99.90
12726;DHT22;6427;49.754;6.106;2023-02-08T03:42:16;-2.30;99.90
12726;DHT22;6427;49.754;6.106;2023-02-08T03:44:48;-2.30;99.90
12726;DHT22;6427;49.754;6.106;2023-02-08T03:47:23;-2.40;99.90
12726;DHT22;6427;49.754;6.106;2023-02-08T03:49:51;-2.40;99.90
12726;DHT22;6427;49.754;6.106;2023-02-08T03:52:18;-2.50;99.90
12726;DHT22;6427;49.754;6.106;2023-02-08T03:54:50;-2.50;99.90
12726;DHT22;6427;49.754;6.106;2023-02-08T03:57:23;-2.60;99.90
12726;DHT22;6427;49.754;6.106;2023-02-08T03:59:52;-2.60;99.90
12726;DHT22;6427;49.754;6.106;2023-02-08T04:02:18;-2.60;99.90
12726;DHT22;6427;49.754;6.106;2023-02-08T04:04:45;-2.60;99.90
12726;DHT22;6427;49.754;6.106;2023-02-08T04:07:12;-2.60;99.90
12726;DHT22;6427;49.754;6.106;2023-02-08T04:09:41;-2.60;99.90
12726;DHT22;6427;49.754;6.106;2023-02-08T04:12:08;-2.70;99.90
12726;DHT22;6427;49.754;6.106;2023-02-08T04:14:36;-2.70;99.90
12726;DHT22;6427;49.754;6.106;2023-02-08T04:17:04;-2.70;99.90
12726;DHT22;6427;49.754;6.106;2023-02-08T04:19:32;-2.70;99.90
12726;DHT22;6427;49.754;6.106;2023-02-08T04:21:59;-2.70;99.90
12726;DHT22;6427;49.754;6.106;2023-02-08T04:24:27;-2.70;99.90
12726;DHT22;6427;49.754;6.106;2023-02-08T04:26:55;-2.70;99.90
12726;DHT22;6427;49.754;6.106;2023-02-08T04:29:23;-2.70;99.90
12726;DHT22;6427;49.754;6.106;2023-02-08T04:31:50;-2.70;99.90
12726;DHT22;6427;49.754;6.106;2023-02-08T04:34:18;-2.40;99.90
12726;DHT22;6427;49.754;6.106;2023-02-08T04:36:45;-2.40;99.90
12726;DHT22;6427;49.754;6.106;2023-02-08T04:39:13;-2.40;99.90
12726;DHT22;6427;49.754;6.106;2023-02-08T04:41:41;-2.50;99.90
12726;DHT22;6427;49.754;6.106;2023-02-08T04:44:09;-2.50;99.90
12726;DHT22;6427;49.754;6.106;2023-02-08T04:46:36;-2.50;99.90
12726;DHT22;6427;49.754;6.106;2023-02-08T04:49:04;-2.50;99.90
12726;DHT22;6427;49.754;6.106;2023-02-08T04:51:32;-2.60;99.90
12726;DHT22;6427;49.754;6.106;2023-02-08T04:54:00;-2.60;99.90
12726;DHT22;6427;49.754;6.106;2023-02-08T04:56:28;-2.70;99.90
12726;DHT22;6427;49.754;6.106;2023-02-08T04:58:56;-2.70;99.90
12726;DHT22;6427;49.754;6.106;2023-02-08T05:01:23;-2.70;99.90
12726;DHT22;6427;49.754;6.106;2023-02-08T05:03:51;-2.80;99.90
12726;DHT22;6427;49.754;6.106;2023-02-08T05:06:19;-2.80;99.90
12726;DHT22;6427;49.754;6.106;2023-02-08T05:08:47;-2.90;99.90
12726;DHT22;6427;49.754;6.106;2023-02-08T05:11:19;-2.90;99.90
12726;DHT22;6427;49.754;6.106;2023-02-08T05:13:46;-2.90;99.90
12726;DHT22;6427;49.754;6.106;2023-02-08T05:16:15;-2.70;99.90
12726;DHT22;6427;49.754;6.106;2023-02-08T05:18:43;-2.80;99.90
12726;DHT22;6427;49.754;6.106;2023-02-08T05:21:11;-2.80;99.90
12726;DHT22;6427;49.754;6.106;2023-02-08T05:23:38;-2.80;99.90
12726;DHT22;6427;49.754;6.106;2023-02-08T05:26:07;-3.00;99.90
12726;DHT22;6427;49.754;6.106;2023-02-08T05:28:34;-3.00;99.90
12726;DHT22;6427;49.754;6.106;2023-02-08T05:31:17;-3.00;99.90
12726;DHT22;6427;49.754;6.106;2023-02-08T05:33:41;-3.10;99.90
12726;DHT22;6427;49.754;6.106;2023-02-08T05:36:09;-3.10;99.90
12726;DHT22;6427;49.754;6.106;2023-02-08T05:38:36;-3.10;99.90
12726;DHT22;6427;49.754;6.106;2023-02-08T05:41:04;-3.20;99.90
12726;DHT22;6427;49.754;6.106;2023-02-08T05:43:31;-3.20;99.90
12726;DHT22;6427;49.754;6.106;2023-02-08T05:45:59;-3.20;99.90
12726;DHT22;6427;49.754;6.106;2023-02-08T05:48:27;-3.10;99.90
12726;DHT22;6427;49.754;6.106;2023-02-08T05:50:54;-3.10;99.90
12726;DHT22;6427;49.754;6.106;2023-02-08T05:53:22;-3.10;99.90
12726;DHT22;6427;49.754;6.106;2023-02-08T05:55:49;-2.80;99.90
12726;DHT22;6427;49.754;6.106;2023-02-08T05:58:17;-2.80;99.90
12726;DHT22;6427;49.754;6.106;2023-02-08T06:00:44;-2.80;99.90
12726;DHT22;6427;49.754;6.106;2023-02-08T06:03:12;-2.90;99.90
12726;DHT22;6427;49.754;6.106;2023-02-08T06:05:40;-2.90;99.90
12726;DHT22;6427;49.754;6.106;2023-02-08T06:08:08;-2.90;99.90
12726;DHT22;6427;49.754;6.106;2023-02-08T06:10:35;-2.90;99.90
12726;DHT22;6427;49.754;6.106;2023-02-08T06:13:03;-2.90;99.90
12726;DHT22;6427;49.754;6.106;2023-02-08T06:15:30;-2.90;99.90
12726;DHT22;6427;49.754;6.106;2023-02-08T06:17:58;-2.90;99.90
12726;DHT22;6427;49.754;6.106;2023-02-08T06:20:25;-2.90;99.90
12726;DHT22;6427;49.754;6.106;2023-02-08T06:22:53;-2.90;99.90
12726;DHT22;6427;49.754;6.106;2023-02-08T06:25:21;-3.00;99.90
12726;DHT22;6427;49.754;6.106;2023-02-08T06:27:48;-3.00;99.90
12726;DHT22;6427;49.754;6.106;2023-02-08T06:30:16;-3.00;99.90
12726;DHT22;6427;49.754;6.106;2023-02-08T06:32:44;-3.00;99.90
12726;DHT22;6427;49.754;6.106;2023-02-08T06:35:12;-3.00;99.90
12726;DHT22;6427;49.754;6.106;2023-02-08T06:37:40;-3.00;99.90
12726;DHT22;6427;49.754;6.106;2023-02-08T06:40:07;-3.00;99.90
12726;DHT22;6427;49.754;6.106;2023-02-08T06:42:35;-3.00;99.90
12726;DHT22;6427;49.754;6.106;2023-02-08T06:45:02;-2.80;99.90
12726;DHT22;6427;49.754;6.106;2023-02-08T06:47:30;-2.40;99.90
12726;DHT22;6427;49.754;6.106;2023-02-08T06:49:58;-2.10;99.90
12726;DHT22;6427;49.754;6.106;2023-02-08T06:52:25;-1.80;99.90
12726;DHT22;6427;49.754;6.106;2023-02-08T06:54:53;-1.60;99.90
12726;DHT22;6427;49.754;6.106;2023-02-08T06:57:20;-1.90;99.90
12726;DHT22;6427;49.754;6.106;2023-02-08T06:59:48;-2.10;99.90
12726;DHT22;6427;49.754;6.106;2023-02-08T07:02:16;-2.30;99.90
12726;DHT22;6427;49.754;6.106;2023-02-08T07:04:43;-2.50;99.90
12726;DHT22;6427;49.754;6.106;2023-02-08T07:07:12;-2.70;99.90
12726;DHT22;6427;49.754;6.106;2023-02-08T07:09:39;-2.70;99.90
12726;DHT22;6427;49.754;6.106;2023-02-08T07:12:07;-2.80;99.90
12726;DHT22;6427;49.754;6.106;2023-02-08T07:14:35;-2.60;99.90
12726;DHT22;6427;49.754;6.106;2023-02-08T07:17:02;-2.30;99.90
12726;DHT22;6427;49.754;6.106;2023-02-08T07:19:30;-2.60;99.90
12726;DHT22;6427;49.754;6.106;2023-02-08T07:21:57;-2.60;99.90
12726;DHT22;6427;49.754;6.106;2023-02-08T07:24:28;-2.60;99.90
12726;DHT22;6427;49.754;6.106;2023-02-08T07:26:56;-2.70;99.90
12726;DHT22;6427;49.754;6.106;2023-02-08T07:29:24;-2.80;99.90
12726;DHT22;6427;49.754;6.106;2023-02-08T07:31:52;-2.80;99.90
12726;DHT22;6427;49.754;6.106;2023-02-08T07:34:19;-2.90;99.90
12726;DHT22;6427;49.754;6.106;2023-02-08T07:36:47;-2.60;99.90
12726;DHT22;6427;49.754;6.106;2023-02-08T07:39:14;-2.30;99.90
12726;DHT22;6427;49.754;6.106;2023-02-08T07:41:42;-2.40;99.90
12726;DHT22;6427;49.754;6.106;2023-02-08T07:44:09;-2.50;99.90
12726;DHT22;6427;49.754;6.106;2023-02-08T07:46:37;-2.30;99.90
12726;DHT22;6427;49.754;6.106;2023-02-08T07:49:04;-2.30;99.90
12726;DHT22;6427;49.754;6.106;2023-02-08T07:51:32;-2.30;99.90
12726;DHT22;6427;49.754;6.106;2023-02-08T07:54:00;-2.30;99.90
12726;DHT22;6427;49.754;6.106;2023-02-08T07:56:27;-2.30;99.90
12726;DHT22;6427;49.754;6.106;2023-02-08T07:58:55;-2.20;99.90
12726;DHT22;6427;49.754;6.106;2023-02-08T08:01:22;-2.10;99.90
12726;DHT22;6427;49.754;6.106;2023-02-08T08:03:50;-2.00;99.90
12726;DHT22;6427;49.754;6.106;2023-02-08T08:06:18;-1.90;99.90
12726;DHT22;6427;49.754;6.106;2023-02-08T08:08:45;-1.90;99.90
12726;DHT22;6427;49.754;6.106;2023-02-08T08:11:14;-1.70;99.90
12726;DHT22;6427;49.754;6.106;2023-02-08T08:13:41;-1.70;99.90
12726;DHT22;6427;49.754;6.106;2023-02-08T08:16:08;-1.60;99.90
12726;DHT22;6427;49.754;6.106;2023-02-08T08:18:37;-1.40;99.90
12726;DHT22;6427;49.754;6.106;2023-02-08T08:21:04;-1.40;99.90
12726;DHT22;6427;49.754;6.106;2023-02-08T08:23:32;-1.30;99.90
12726;DHT22;6427;49.754;6.106;2023-02-08T08:25:59;-1.20;99.90
12726;DHT22;6427;49.754;6.106;2023-02-08T08:28:27;-1.00;99.90
12726;DHT22;6427;49.754;6.106;2023-02-08T08:30:54;-1.00;99.90
12726;DHT22;6427;49.754;6.106;2023-02-08T08:33:22;-0.80;99.90
12726;DHT22;6427;49.754;6.106;2023-02-08T08:35:50;-0.60;99.90
12726;DHT22;6427;49.754;6.106;2023-02-08T08:38:18;-0.70;99.90
12726;DHT22;6427;49.754;6.106;2023-02-08T08:40:45;-0.60;99.90
12726;DHT22;6427;49.754;6.106;2023-02-08T08:43:14;-0.20;99.90
12726;DHT22;6427;49.754;6.106;2023-02-08T08:45:41;-0.20;99.90
12726;DHT22;6427;49.754;6.106;2023-02-08T08:48:09;-0.10;99.90
12726;DHT22;6427;49.754;6.106;2023-02-08T08:50:36;0.00;99.90
12726;DHT22;6427;49.754;6.106;2023-02-08T08:53:05;0.30;99.90
12726;DHT22;6427;49.754;6.106;2023-02-08T08:55:32;0.30;99.90
12726;DHT22;6427;49.754;6.106;2023-02-08T08:58:00;0.40;99.90
12726;DHT22;6427;49.754;6.106;2023-02-08T09:00:28;0.50;99.90
12726;DHT22;6427;49.754;6.106;2023-02-08T09:02:56;0.50;99.90
12726;DHT22;6427;49.754;6.106;2023-02-08T09:05:24;0.60;99.90
12726;DHT22;6427;49.754;6.106;2023-02-08T09:07:52;0.60;99.90
12726;DHT22;6427;49.754;6.106;2023-02-08T09:10:20;0.90;99.90
12726;DHT22;6427;49.754;6.106;2023-02-08T09:12:48;1.00;99.90
12726;DHT22;6427;49.754;6.106;2023-02-08T09:15:15;1.20;99.90
12726;DHT22;6427;49.754;6.106;2023-02-08T09:20:20;1.30;99.90
12726;DHT22;6427;49.754;6.106;2023-02-08T09:22:47;1.40;99.40
12726;DHT22;6427;49.754;6.106;2023-02-08T09:25:15;1.60;98.80
12726;DHT22;6427;49.754;6.106;2023-02-08T09:27:42;1.90;97.60
12726;DHT22;6427;49.754;6.106;2023-02-08T09:30:12;1.90;96.90
12726;DHT22;6427;49.754;6.106;2023-02-08T09:32:39;1.90;96.60
12726;DHT22;6427;49.754;6.106;2023-02-08T09:35:07;1.90;96.40
12726;DHT22;6427;49.754;6.106;2023-02-08T09:37:34;2.10;95.60
12726;DHT22;6427;49.754;6.106;2023-02-08T09:40:02;2.20;95.00
12726;DHT22;6427;49.754;6.106;2023-02-08T09:42:33;2.20;94.80
12726;DHT22;6427;49.754;6.106;2023-02-08T09:47:49;2.30;94.10
12726;DHT22;6427;49.754;6.106;2023-02-08T09:50:26;2.40;94.00
12726;DHT22;6427;49.754;6.106;2023-02-08T09:52:51;2.40;93.60
12726;DHT22;6427;49.754;6.106;2023-02-08T09:57:44;2.80;92.40
12726;DHT22;6427;49.754;6.106;2023-02-08T10:00:14;2.90;91.50
12726;DHT22;6427;49.754;6.106;2023-02-08T10:02:40;2.90;91.50
12726;DHT22;6427;49.754;6.106;2023-02-08T10:05:15;3.00;90.70
12726;DHT22;6427;49.754;6.106;2023-02-08T10:07:41;3.10;90.30
12726;DHT22;6427;49.754;6.106;2023-02-08T10:10:15;3.20;89.00
12726;DHT22;6427;49.754;6.106;2023-02-08T10:12:50;3.30;86.40
12726;DHT22;6427;49.754;6.106;2023-02-08T10:15:35;3.40;85.00
12726;DHT22;6427;49.754;6.106;2023-02-08T10:20:52;3.40;84.20
12726;DHT22;6427;49.754;6.106;2023-02-08T10:23:50;3.50;82.90
12726;DHT22;6427;49.754;6.106;2023-02-08T10:29:03;4.10;76.50
12726;DHT22;6427;49.754;6.106;2023-02-08T10:31:34;4.10;73.50
12726;DHT22;6427;49.754;6.106;2023-02-08T10:34:03;4.20;73.60
12726;DHT22;6427;49.754;6.106;2023-02-08T10:36:33;4.10;73.60
12726;DHT22;6427;49.754;6.106;2023-02-08T10:38:59;4.20;73.60
12726;DHT22;6427;49.754;6.106;2023-02-08T10:41:34;4.30;72.10
12726;DHT22;6427;49.754;6.106;2023-02-08T10:44:02;4.30;70.30
12726;DHT22;6427;49.754;6.106;2023-02-08T10:51:32;4.70;66.80
12726;DHT22;6427;49.754;6.106;2023-02-08T10:54:00;4.80;66.10
12726;DHT22;6427;49.754;6.106;2023-02-08T10:56:35;4.80;66.10
12726;DHT22;6427;49.754;6.106;2023-02-08T10:59:04;4.90;65.30
12726;DHT22;6427;49.754;6.106;2023-02-08T11:01:29;5.10;62.50
12726;DHT22;6427;49.754;6.106;2023-02-08T11:06:28;5.30;60.90
12726;DHT22;6427;49.754;6.106;2023-02-08T11:08:56;5.30;60.80
12726;DHT22;6427;49.754;6.106;2023-02-08T11:11:24;5.30;60.00
12726;DHT22;6427;49.754;6.106;2023-02-08T11:13:51;5.30;59.80
12726;DHT22;6427;49.754;6.106;2023-02-08T11:16:20;5.30;58.70
12726;DHT22;6427;49.754;6.106;2023-02-08T11:18:51;5.30;58.50
12726;DHT22;6427;49.754;6.106;2023-02-08T11:21:42;5.30;58.30
12726;DHT22;6427;49.754;6.106;2023-02-08T11:23:54;5.40;58.10
12726;DHT22;6427;49.754;6.106;2023-02-08T11:28:59;5.50;57.60
12726;DHT22;6427;49.754;6.106;2023-02-08T11:31:25;5.60;57.50
12726;DHT22;6427;49.754;6.106;2023-02-08T11:34:05;5.60;57.10
12726;DHT22;6427;49.754;6.106;2023-02-08T11:36:33;5.70;56.90
12726;DHT22;6427;49.754;6.106;2023-02-08T11:39:02;5.80;56.00
12726;DHT22;6427;49.754;6.106;2023-02-08T11:41:28;5.80;56.00
12726;DHT22;6427;49.754;6.106;2023-02-08T11:43:57;5.90;56.00
12726;DHT22;6427;49.754;6.106;2023-02-08T11:46:24;6.00;55.70
12726;DHT22;6427;49.754;6.106;2023-02-08T11:48:51;6.00;54.70
12726;DHT22;6427;49.754;6.106;2023-02-08T11:51:40;6.10;54.30
12726;DHT22;6427;49.754;6.106;2023-02-08T11:53:52;6.10;54.20
12726;DHT22;6427;49.754;6.106;2023-02-08T11:56:21;6.10;53.80
12726;DHT22;6427;49.754;6.106;2023-02-08T12:01:28;6.10;53.70
12726;DHT22;6427;49.754;6.106;2023-02-08T12:03:55;6.20;53.40
12726;DHT22;6427;49.754;6.106;2023-02-08T12:11:49;6.50;52.20
12726;DHT22;6427;49.754;6.106;2023-02-08T12:14:19;6.50;52.10
12726;DHT22;6427;49.754;6.106;2023-02-08T12:22:29;6.50;51.90
12726;DHT22;6427;49.754;6.106;2023-02-08T12:36:04;6.70;50.00
12726;DHT22;6427;49.754;6.106;2023-02-08T12:41:30;6.80;49.60
12726;DHT22;6427;49.754;6.106;2023-02-08T12:44:26;6.80;48.90
12726;DHT22;6427;49.754;6.106;2023-02-08T12:46:50;6.80;48.90
12726;DHT22;6427;49.754;6.106;2023-02-08T12:54:59;6.90;48.70
12726;DHT22;6427;49.754;6.106;2023-02-08T12:57:25;6.90;48.60
12726;DHT22;6427;49.754;6.106;2023-02-08T13:02:33;7.20;47.50
12726;DHT22;6427;49.754;6.106;2023-02-08T13:05:01;7.20;47.50
12726;DHT22;6427;49.754;6.106;2023-02-08T13:07:33;7.20;47.30
12726;DHT22;6427;49.754;6.106;2023-02-08T13:10:24;7.20;47.60
12726;DHT22;6427;49.754;6.106;2023-02-08T13:12:50;7.20;47.50
12726;DHT22;6427;49.754;6.106;2023-02-08T13:18:19;7.20;47.90
12726;DHT22;6427;49.754;6.106;2023-02-08T13:20:52;7.50;47.70
12726;DHT22;6427;49.754;6.106;2023-02-08T13:23:37;7.50;46.90
12726;DHT22;6427;49.754;6.106;2023-02-08T13:26:14;7.50;46.70
12726;DHT22;6427;49.754;6.106;2023-02-08T13:28:37;7.40;47.50
12726;DHT22;6427;49.754;6.106;2023-02-08T13:31:12;7.40;47.10
12726;DHT22;6427;49.754;6.106;2023-02-08T13:33:40;7.40;47.20
12726;DHT22;6427;49.754;6.106;2023-02-08T13:36:08;7.40;47.10
12726;DHT22;6427;49.754;6.106;2023-02-08T13:38:33;7.40;47.20
12726;DHT22;6427;49.754;6.106;2023-02-08T13:41:12;7.40;47.40
12726;DHT22;6427;49.754;6.106;2023-02-08T13:46:15;7.80;46.60
12726;DHT22;6427;49.754;6.106;2023-02-08T13:48:49;7.80;46.60
12726;DHT22;6427;49.754;6.106;2023-02-08T13:59:04;7.70;46.30
12726;DHT22;6427;49.754;6.106;2023-02-08T14:01:34;7.60;46.30
12726;DHT22;6427;49.754;6.106;2023-02-08T14:06:35;7.50;46.70
12726;DHT22;6427;49.754;6.106;2023-02-08T14:09:07;7.40;46.70
12726;DHT22;6427;49.754;6.106;2023-02-08T14:11:41;7.60;46.80
12726;DHT22;6427;49.754;6.106;2023-02-08T14:16:43;7.60;47.00
12726;DHT22;6427;49.754;6.106;2023-02-08T14:24:36;8.10;46.10
12726;DHT22;6427;49.754;6.106;2023-02-08T14:27:39;8.10;46.20
12726;DHT22;6427;49.754;6.106;2023-02-08T14:29:37;8.00;45.80
12726;DHT22;6427;49.754;6.106;2023-02-08T14:32:05;7.80;46.00
12726;DHT22;6427;49.754;6.106;2023-02-08T14:34:33;7.80;46.70
12726;DHT22;6427;49.754;6.106;2023-02-08T14:39:37;7.90;47.10
12726;DHT22;6427;49.754;6.106;2023-02-08T14:42:08;7.90;46.40
12726;DHT22;6427;49.754;6.106;2023-02-08T14:50:07;7.40;46.00
12726;DHT22;6427;49.754;6.106;2023-02-08T14:52:31;7.40;46.00
12726;DHT22;6427;49.754;6.106;2023-02-08T14:55:01;7.30;46.10
12726;DHT22;6427;49.754;6.106;2023-02-08T14:57:31;7.20;46.50
12726;DHT22;6427;49.754;6.106;2023-02-08T14:59:58;7.20;46.50
12726;DHT22;6427;49.754;6.106;2023-02-08T15:02:26;7.20;46.60
12726;DHT22;6427;49.754;6.106;2023-02-08T15:04:53;7.20;46.50
12726;DHT22;6427;49.754;6.106;2023-02-08T15:07:32;7.20;46.40
12726;DHT22;6427;49.754;6.106;2023-02-08T15:09:57;7.20;46.40
12726;DHT22;6427;49.754;6.106;2023-02-08T15:12:31;7.20;46.80
12726;DHT22;6427;49.754;6.106;2023-02-08T15:15:00;7.30;46.30
12726;DHT22;6427;49.754;6.106;2023-02-08T15:17:38;7.30;46.70
12726;DHT22;6427;49.754;6.106;2023-02-08T15:20:05;7.60;45.70
12726;DHT22;6427;49.754;6.106;2023-02-08T15:22:35;7.60;45.70
12726;DHT22;6427;49.754;6.106;2023-02-08T15:25:28;7.80;44.60
12726;DHT22;6427;49.754;6.106;2023-02-08T15:27:55;7.70;44.50
12726;DHT22;6427;49.754;6.106;2023-02-08T15:30:26;7.60;44.50
12726;DHT22;6427;49.754;6.106;2023-02-08T15:32:53;7.40;44.60
12726;DHT22;6427;49.754;6.106;2023-02-08T15:35:21;7.40;44.60
12726;DHT22;6427;49.754;6.106;2023-02-08T15:37:48;7.30;44.20
12726;DHT22;6427;49.754;6.106;2023-02-08T15:40:29;7.20;44.90
12726;DHT22;6427;49.754;6.106;2023-02-08T15:43:30;7.20;44.80
12726;DHT22;6427;49.754;6.106;2023-02-08T15:45:29;7.10;45.20
12726;DHT22;6427;49.754;6.106;2023-02-08T15:47:57;7.10;45.40
12726;DHT22;6427;49.754;6.106;2023-02-08T15:50:24;7.10;45.30
12726;DHT22;6427;49.754;6.106;2023-02-08T15:52:56;7.10;45.30
12726;DHT22;6427;49.754;6.106;2023-02-08T15:55:22;7.40;46.20
12726;DHT22;6427;49.754;6.106;2023-02-08T15:58:15;7.40;45.70
12726;DHT22;6427;49.754;6.106;2023-02-08T16:00:31;7.30;45.30
12726;DHT22;6427;49.754;6.106;2023-02-08T16:03:12;7.30;45.20
12726;DHT22;6427;49.754;6.106;2023-02-08T16:05:34;7.20;45.10
12726;DHT22;6427;49.754;6.106;2023-02-08T16:08:01;7.20;45.00
12726;DHT22;6427;49.754;6.106;2023-02-08T16:10:38;7.10;45.20
12726;DHT22;6427;49.754;6.106;2023-02-08T16:13:05;7.00;45.30
12726;DHT22;6427;49.754;6.106;2023-02-08T16:15:40;7.00;45.10
12726;DHT22;6427;49.754;6.106;2023-02-08T16:18:28;7.00;45.30
12726;DHT22;6427;49.754;6.106;2023-02-08T16:20:34;7.00;45.20
12726;DHT22;6427;49.754;6.106;2023-02-08T16:23:02;7.00;45.40
12726;DHT22;6427;49.754;6.106;2023-02-08T16:27:56;6.90;46.00
12726;DHT22;6427;49.754;6.106;2023-02-08T16:30:24;6.70;46.30
12726;DHT22;6427;49.754;6.106;2023-02-08T16:32:52;6.70;46.20
12726;DHT22;6427;49.754;6.106;2023-02-08T16:35:26;6.50;45.80
12726;DHT22;6427;49.754;6.106;2023-02-08T16:38:00;6.40;45.80
12726;DHT22;6427;49.754;6.106;2023-02-08T16:43:14;6.50;46.00
12726;DHT22;6427;49.754;6.106;2023-02-08T16:45:41;6.30;46.50
12726;DHT22;6427;49.754;6.106;2023-02-08T16:48:26;6.30;48.20
12726;DHT22;6427;49.754;6.106;2023-02-08T16:50:52;6.30;48.10
12726;DHT22;6427;49.754;6.106;2023-02-08T16:53:20;6.10;48.20
12726;DHT22;6427;49.754;6.106;2023-02-08T16:55:48;5.60;50.00
12726;DHT22;6427;49.754;6.106;2023-02-08T16:58:16;5.60;49.60
12726;DHT22;6427;49.754;6.106;2023-02-08T17:00:43;5.40;50.20
12726;DHT22;6427;49.754;6.106;2023-02-08T17:03:12;5.10;52.00
12726;DHT22;6427;49.754;6.106;2023-02-08T17:05:39;5.10;51.30
12726;DHT22;6427;49.754;6.106;2023-02-08T17:08:10;5.00;51.90
12726;DHT22;6427;49.754;6.106;2023-02-08T17:10:34;4.80;52.10
12726;DHT22;6427;49.754;6.106;2023-02-08T17:13:03;4.60;52.50
12726;DHT22;6427;49.754;6.106;2023-02-08T17:15:30;4.60;52.80
12726;DHT22;6427;49.754;6.106;2023-02-08T17:17:58;4.50;52.70
12726;DHT22;6427;49.754;6.106;2023-02-08T17:20:32;4.50;52.60
12726;DHT22;6427;49.754;6.106;2023-02-08T17:23:00;4.40;52.40
12726;DHT22;6427;49.754;6.106;2023-02-08T17:25:26;4.30;52.40
12726;DHT22;6427;49.754;6.106;2023-02-08T17:27:55;4.10;52.40
12726;DHT22;6427;49.754;6.106;2023-02-08T17:30:26;4.10;52.40
12726;DHT22;6427;49.754;6.106;2023-02-08T17:32:53;4.00;52.70
12726;DHT22;6427;49.754;6.106;2023-02-08T17:35:24;4.00;52.70
12726;DHT22;6427;49.754;6.106;2023-02-08T17:37:52;3.80;53.20
12726;DHT22;6427;49.754;6.106;2023-02-08T17:40:20;3.80;53.00
12726;DHT22;6427;49.754;6.106;2023-02-08T17:42:47;3.70;53.30
12726;DHT22;6427;49.754;6.106;2023-02-08T17:45:15;3.70;53.80
12726;DHT22;6427;49.754;6.106;2023-02-08T17:47:43;3.60;54.80
12726;DHT22;6427;49.754;6.106;2023-02-08T17:50:12;3.60;54.80
12726;DHT22;6427;49.754;6.106;2023-02-08T17:52:39;3.50;55.10
12726;DHT22;6427;49.754;6.106;2023-02-08T17:55:06;3.40;55.60
12726;DHT22;6427;49.754;6.106;2023-02-08T17:57:34;3.40;55.80
12726;DHT22;6427;49.754;6.106;2023-02-08T18:00:02;3.30;56.00
12726;DHT22;6427;49.754;6.106;2023-02-08T18:02:28;3.20;56.50
12726;DHT22;6427;49.754;6.106;2023-02-08T18:04:56;3.10;56.60
12726;DHT22;6427;49.754;6.106;2023-02-08T18:07:23;3.10;56.40
12726;DHT22;6427;49.754;6.106;2023-02-08T18:09:51;3.10;56.10